createdAt,value
2023-02-06T00:01:12.947Z,104430.69
2023-02-06T00:03:39.439Z,104426.38
2023-02-06T00:06:06.358Z,104428.09
2023-02-06T00:08:34.362Z,104425.50
2023-02-06T00:11:07.481Z,104428.09
2023-02-06T00:13:35.033Z,104427.16
2023-02-06T00:16:01.959Z,104422.00
2023-02-06T00:18:28.527Z,104415.94
2023-02-06T00:20:55.652Z,104409.84
2023-02-06T00:23:22.794Z,104407.22
2023-02-06T00:25:49.350Z,104406.31
2023-02-06T00:28:15.879Z,104401.03
2023-02-06T00:30:46.143Z,104403.63
2023-02-06T00:33:12.718Z,104398.44
2023-02-06T00:35:39.128Z,104397.59
2023-02-06T00:38:06.773Z,104391.53
2023-02-06T00:40:33.229Z,104400.97
2023-02-06T00:42:59.659Z,104402.75
2023-02-06T00:45:26.135Z,104401.81
2023-02-06T00:47:52.591Z,104390.63
2023-02-06T00:50:19.053Z,104399.22
2023-02-06T00:52:45.896Z,104406.13
2023-02-06T00:55:12.453Z,104412.16
2023-02-06T00:57:39.104Z,104412.16
2023-02-06T01:00:07.617Z,104411.25
2023-02-06T01:02:34.483Z,104406.06
2023-02-06T01:05:01.212Z,104412.97
2023-02-06T01:07:27.772Z,104414.69
2023-02-06T01:09:54.453Z,104412.09
2023-02-06T01:12:21.065Z,104416.44
2023-02-06T01:14:47.961Z,104421.66
2023-02-06T01:17:14.488Z,104419.09
2023-02-06T01:19:40.971Z,104424.28
2023-02-06T01:22:07.495Z,104427.78
2023-02-06T01:24:33.993Z,104426.06
2023-02-06T01:27:00.520Z,104433.00
2023-02-06T01:29:27.049Z,104425.22
2023-02-06T01:31:53.495Z,104427.81
2023-02-06T01:34:20.605Z,104424.41
2023-02-06T01:36:47.030Z,104426.19
2023-02-06T01:39:14.770Z,104427.06
2023-02-06T01:41:41.324Z,104416.75
2023-02-06T01:44:10.707Z,104418.47
2023-02-06T01:46:41.804Z,104415.00
2023-02-06T01:49:20.168Z,104416.78
2023-02-06T01:51:49.025Z,104416.81
2023-02-06T01:54:15.795Z,104421.13
2023-02-06T01:56:51.812Z,104417.69
2023-02-06T01:59:19.482Z,104415.09
2023-02-06T02:01:47.296Z,104415.06
2023-02-06T02:04:19.041Z,104415.97
2023-02-06T02:07:00.193Z,104407.31
2023-02-06T02:09:27.075Z,104404.72
2023-02-06T02:11:53.599Z,104402.16
2023-02-06T02:14:20.314Z,104407.31
2023-02-06T02:16:56.526Z,104400.41
2023-02-06T02:19:55.049Z,104394.28
2023-02-06T02:22:51.500Z,104395.94
2023-02-06T02:25:27.585Z,104391.53
2023-02-06T02:28:06.623Z,104400.19
2023-02-06T02:30:38.955Z,104394.94
2023-02-06T02:33:17.596Z,104391.47
2023-02-06T02:36:22.428Z,104388.94
2023-02-06T02:39:07.163Z,104385.44
2023-02-06T02:41:33.754Z,104380.25
2023-02-06T02:44:10.518Z,104375.91
2023-02-06T02:46:37.000Z,104377.50
2023-02-06T02:49:09.008Z,104371.44
2023-02-06T02:51:38.168Z,104382.66
2023-02-06T02:54:04.754Z,104386.91
2023-02-06T02:56:35.679Z,104380.81
2023-02-06T02:59:13.531Z,104379.00
2023-02-06T03:02:05.388Z,104375.44
2023-02-06T03:04:40.703Z,104374.41
2023-02-06T03:07:10.134Z,104368.28
2023-02-06T03:09:50.761Z,104377.63
2023-02-06T03:12:32.511Z,104362.81
2023-02-06T03:15:20.408Z,104357.53
2023-02-06T03:17:53.466Z,104354.78
2023-02-06T03:20:21.032Z,104362.38
2023-02-06T03:22:50.303Z,104360.63
2023-02-06T03:25:25.095Z,104368.25
2023-02-06T03:27:53.549Z,104366.38
2023-02-06T03:30:24.091Z,104361.06
2023-02-06T03:32:56.479Z,104361.81
2023-02-06T03:35:28.692Z,104368.56
2023-02-06T03:37:55.739Z,104372.06
2023-02-06T03:40:22.817Z,104366.00
2023-02-06T03:42:56.332Z,104357.19
2023-02-06T03:45:28.822Z,104370.06
2023-02-06T03:47:58.062Z,104375.97
2023-02-06T03:50:26.806Z,104375.06
2023-02-06T03:52:56.496Z,104371.53
2023-02-06T03:55:24.375Z,104366.28
2023-02-06T03:57:59.593Z,104374.91
2023-02-06T04:00:26.956Z,104374.88
2023-02-06T04:02:57.221Z,104367.06
2023-02-06T04:05:25.244Z,104382.59
2023-02-06T04:07:53.838Z,104380.75
2023-02-06T04:10:20.320Z,104378.13
2023-02-06T04:12:46.779Z,104363.31
2023-02-06T04:15:13.398Z,104367.53
2023-02-06T04:17:57.566Z,104369.38
2023-02-06T04:20:25.715Z,104370.38
2023-02-06T04:22:52.245Z,104373.88
2023-02-06T04:25:19.724Z,104375.59
2023-02-06T04:27:46.330Z,104369.53
2023-02-06T04:30:13.342Z,104378.94
2023-02-06T04:32:39.768Z,104368.66
2023-02-06T04:35:06.568Z,104369.53
2023-02-06T04:37:33.206Z,104366.84
2023-02-06T04:39:59.717Z,104368.56
2023-02-06T04:42:26.201Z,104354.72
2023-02-06T04:44:52.651Z,104352.09
2023-02-06T04:47:19.087Z,104352.09
2023-02-06T04:49:45.627Z,104349.50
2023-02-06T04:52:12.581Z,104353.78
2023-02-06T04:54:39.025Z,104365.00
2023-02-06T04:57:05.455Z,104371.91
2023-02-06T04:59:31.889Z,104384.84
2023-02-06T05:01:58.393Z,104377.19
2023-02-06T05:04:24.893Z,104369.34
2023-02-06T05:06:51.361Z,104380.56
2023-02-06T05:09:17.773Z,104373.75
2023-02-06T05:11:44.344Z,104375.38
2023-02-06T05:14:10.749Z,104376.16
2023-02-06T05:16:38.232Z,104376.94
2023-02-06T05:19:04.671Z,104388.13
2023-02-06T05:21:32.056Z,104385.50
2023-02-06T05:23:58.537Z,104394.06
2023-02-06T05:26:25.052Z,104381.97
2023-02-06T05:28:51.716Z,104385.41
2023-02-06T05:31:20.432Z,104389.69
2023-02-06T05:33:51.840Z,104396.56
2023-02-06T05:36:19.542Z,104400.91
2023-02-06T05:38:46.974Z,104406.97
2023-02-06T05:41:13.598Z,104406.16
2023-02-06T05:43:40.019Z,104399.22
2023-02-06T05:46:06.747Z,104405.22
2023-02-06T05:48:34.851Z,104406.81
2023-02-06T05:51:01.769Z,104405.13
2023-02-06T05:53:29.219Z,104403.50
2023-02-06T05:55:56.121Z,104402.63
2023-02-06T05:58:22.966Z,104393.09
2023-02-06T06:00:49.471Z,104395.66
2023-02-06T06:03:16.756Z,104395.66
2023-02-06T06:05:43.113Z,104396.56
2023-02-06T06:08:09.552Z,104392.13
2023-02-06T06:10:36.022Z,104388.59
2023-02-06T06:13:03.148Z,104389.44
2023-02-06T06:15:30.630Z,104388.66
2023-02-06T06:17:57.131Z,104392.09
2023-02-06T06:20:23.708Z,104393.75
2023-02-06T06:22:50.297Z,104401.66
2023-02-06T06:25:17.647Z,104400.81
2023-02-06T06:27:45.171Z,104405.19
2023-02-06T06:30:12.281Z,104406.94
2023-02-06T06:32:38.776Z,104404.31
2023-02-06T06:35:05.552Z,104409.53
2023-02-06T06:37:31.961Z,104412.16
2023-02-06T06:39:59.024Z,104412.16
2023-02-06T06:42:25.522Z,104415.66
2023-02-06T06:44:52.603Z,104407.91
2023-02-06T06:47:19.007Z,104406.16
2023-02-06T06:49:45.559Z,104401.09
2023-02-06T06:52:24.093Z,104393.28
2023-02-06T06:54:52.403Z,104392.31
2023-02-06T06:57:20.092Z,104391.34
2023-02-06T06:59:46.674Z,104378.41
2023-02-06T07:02:13.547Z,104381.88
2023-02-06T07:04:40.171Z,104381.97
2023-02-06T07:07:07.099Z,104390.66
2023-02-06T07:09:33.889Z,104383.72
2023-02-06T07:12:00.394Z,104369.94
2023-02-06T07:14:26.897Z,104382.06
2023-02-06T07:16:53.571Z,104379.50
2023-02-06T07:19:21.333Z,104376.22
2023-02-06T07:21:48.018Z,104372.78
2023-02-06T07:24:14.668Z,104366.84
2023-02-06T07:26:41.594Z,104365.16
2023-02-06T07:29:08.300Z,104359.19
2023-02-06T07:31:35.167Z,104353.25
2023-02-06T07:34:02.325Z,104348.97
2023-02-06T07:36:29.009Z,104335.34
2023-02-06T07:38:56.115Z,104343.03
2023-02-06T07:41:22.612Z,104344.03
2023-02-06T07:43:49.342Z,104339.91
2023-02-06T07:46:15.931Z,104346.06
2023-02-06T07:48:42.524Z,104334.91
2023-02-06T07:51:10.227Z,104329.84
2023-02-06T07:53:41.420Z,104323.84
2023-02-06T07:56:13.781Z,104322.19
2023-02-06T07:58:41.053Z,104318.81
2023-02-06T08:01:08.011Z,104305.22
2023-02-06T08:03:35.028Z,104302.53
2023-02-06T08:06:08.541Z,104297.34
2023-02-06T08:08:36.658Z,104291.41
2023-02-06T08:11:12.419Z,104287.25
2023-02-06T08:13:39.006Z,104287.41
2023-02-06T08:16:12.465Z,104289.28
2023-02-06T08:18:39.610Z,104287.69
2023-02-06T08:21:15.410Z,104280.00
2023-02-06T08:23:42.695Z,104273.19
2023-02-06T08:26:15.732Z,104273.31
2023-02-06T08:28:43.623Z,104275.19
2023-02-06T08:31:13.710Z,104276.22
2023-02-06T08:33:41.118Z,104280.69
2023-02-06T08:36:09.006Z,104283.44
2023-02-06T08:38:36.347Z,104279.28
2023-02-06T08:41:03.643Z,104287.25
2023-02-06T08:43:32.815Z,104285.75
2023-02-06T08:46:00.326Z,104278.91
2023-02-06T08:48:27.078Z,104272.94
2023-02-06T08:51:07.668Z,104268.69
2023-02-06T08:53:34.675Z,104277.38
2023-02-06T08:56:09.641Z,104275.66
2023-02-06T08:58:38.036Z,104292.25
2023-02-06T09:01:09.429Z,104284.59
2023-02-06T09:03:36.354Z,104286.47
2023-02-06T09:06:09.779Z,104271.16
2023-02-06T09:08:38.072Z,104278.25
2023-02-06T09:11:16.028Z,104273.25
2023-02-06T09:13:49.203Z,104278.53
2023-02-06T09:16:18.458Z,104281.22
2023-02-06T09:18:45.874Z,104288.22
2023-02-06T09:21:16.150Z,104290.81
2023-02-06T09:23:48.359Z,104280.69
2023-02-06T09:26:19.234Z,104279.03
2023-02-06T09:28:46.125Z,104272.16
2023-02-06T09:31:13.108Z,104278.22
2023-02-06T09:33:40.446Z,104286.97
2023-02-06T09:36:12.980Z,104296.66
2023-02-06T09:38:42.073Z,104301.09
2023-02-06T09:41:26.888Z,104299.50
2023-02-06T09:44:16.607Z,104300.38
2023-02-06T09:46:48.850Z,104304.53
2023-02-06T09:49:29.549Z,104302.00
2023-02-06T09:52:33.341Z,104307.34
2023-02-06T09:55:18.379Z,104298.81
2023-02-06T09:57:58.475Z,104303.22
2023-02-06T10:00:36.061Z,104298.06
2023-02-06T10:03:21.194Z,104294.78
2023-02-06T10:05:59.375Z,104297.38
2023-02-06T10:08:30.526Z,104307.78
2023-02-06T10:11:01.608Z,104304.31
2023-02-06T10:13:34.584Z,104305.16
2023-02-06T10:16:24.660Z,104311.94
2023-02-06T10:18:56.771Z,104303.09
2023-02-06T10:21:41.506Z,104303.91
2023-02-06T10:24:32.741Z,104301.19
2023-02-06T10:27:04.296Z,104298.56
2023-02-06T10:29:33.207Z,104295.91
2023-02-06T10:31:59.782Z,104289.09
2023-02-06T10:34:45.884Z,104292.84
2023-02-06T10:37:24.648Z,104287.00
2023-02-06T10:40:13.893Z,104289.78
2023-02-06T10:42:55.102Z,104277.78
2023-02-06T10:45:43.923Z,104285.72
2023-02-06T10:48:23.669Z,104290.00
2023-02-06T10:51:27.894Z,104294.38
2023-02-06T10:54:06.911Z,104295.47
2023-02-06T10:56:37.034Z,104289.56
2023-02-06T10:59:31.230Z,104295.69
2023-02-06T11:02:19.382Z,104293.22
2023-02-06T11:04:54.141Z,104283.56
2023-02-06T11:07:42.509Z,104300.25
2023-02-06T11:10:14.458Z,104298.69
2023-02-06T11:12:52.055Z,104294.41
2023-02-06T11:15:27.709Z,104311.03
2023-02-06T11:17:54.907Z,104300.69
2023-02-06T11:20:25.497Z,104291.38
2023-02-06T11:22:53.685Z,104288.84
2023-02-06T11:25:30.053Z,104283.69
2023-02-06T11:27:58.561Z,104286.25
2023-02-06T11:30:32.253Z,104276.63
2023-02-06T11:33:04.905Z,104273.00
2023-02-06T11:35:39.900Z,104260.81
2023-02-06T11:38:20.622Z,104264.31
2023-02-06T11:41:02.331Z,104259.22
2023-02-06T11:43:41.144Z,104249.66
2023-02-06T11:46:23.589Z,104249.75
2023-02-06T11:48:56.299Z,104257.56
2023-02-06T11:51:24.710Z,104253.19
2023-02-06T11:53:55.924Z,104255.72
2023-02-06T11:56:22.962Z,104248.78
2023-02-06T11:59:17.036Z,104244.50
2023-02-06T12:01:46.550Z,104241.91
2023-02-06T12:04:38.216Z,104248.91
2023-02-06T12:07:14.753Z,104256.72
2023-02-06T12:09:41.379Z,104253.22
2023-02-06T12:12:14.930Z,104247.09
2023-02-06T12:14:57.895Z,104236.56
2023-02-06T12:17:36.213Z,104234.03
2023-02-06T12:20:15.269Z,104226.25
2023-02-06T12:22:50.300Z,104235.00
2023-02-06T12:25:23.621Z,104232.47
2023-02-06T12:27:53.072Z,104230.72
2023-02-06T12:30:30.150Z,104242.97
2023-02-06T12:33:21.439Z,104242.91
2023-02-06T12:36:03.143Z,104232.38
2023-02-06T12:38:49.008Z,104223.75
2023-02-06T12:41:40.636Z,104225.50
2023-02-06T12:44:07.341Z,104222.84
2023-02-06T12:46:34.103Z,104205.50
2023-02-06T12:49:45.158Z,104204.66
2023-02-06T12:52:16.991Z,104206.47
2023-02-06T12:54:59.597Z,104205.69
2023-02-06T12:57:29.678Z,104198.75
2023-02-06T13:00:23.918Z,104191.81
2023-02-06T13:03:03.722Z,104186.63
2023-02-06T13:05:36.939Z,104193.59
2023-02-06T13:08:13.219Z,104186.56
2023-02-06T13:10:40.868Z,104177.06
2023-02-06T13:13:26.138Z,104163.16
2023-02-06T13:15:55.191Z,104160.56
2023-02-06T13:18:44.714Z,104161.47
2023-02-06T13:21:32.933Z,104158.88
2023-02-06T13:24:02.513Z,104146.72
2023-02-06T13:26:55.408Z,104151.09
2023-02-06T13:29:34.821Z,104151.94
2023-02-06T13:32:20.140Z,104142.38
2023-02-06T13:34:50.589Z,104139.75
2023-02-06T13:37:20.006Z,104137.16
2023-02-06T13:39:48.239Z,104136.25
2023-02-06T13:42:42.135Z,104147.47
2023-02-06T13:45:25.906Z,104147.44
2023-02-06T13:48:06.331Z,104155.22
2023-02-06T13:50:45.308Z,104149.97
2023-02-06T13:53:29.425Z,104143.91
2023-02-06T13:56:15.118Z,104136.94
2023-02-06T13:58:51.773Z,104140.47
2023-02-06T14:01:25.984Z,104136.22
2023-02-06T14:03:53.832Z,104139.72
2023-02-06T14:06:46.572Z,104138.00
2023-02-06T14:09:36.188Z,104137.16
2023-02-06T14:12:36.660Z,104131.94
2023-02-06T14:15:17.573Z,104131.03
2023-02-06T14:17:57.165Z,104129.31
2023-02-06T14:20:39.163Z,104128.44
2023-02-06T14:23:29.419Z,104127.56
2023-02-06T14:26:38.170Z,104132.78
2023-02-06T14:29:26.358Z,104136.19
2023-02-06T14:32:42.605Z,104135.31
2023-02-06T14:35:33.949Z,104132.72
2023-02-06T14:38:09.634Z,104128.38
2023-02-06T14:40:42.459Z,104133.56
2023-02-06T14:43:16.806Z,104139.63
2023-02-06T14:46:04.253Z,104139.63
2023-02-06T14:48:50.383Z,104125.75
2023-02-06T14:51:35.423Z,104136.16
2023-02-06T14:54:05.316Z,104143.94
2023-02-06T14:56:33.346Z,104151.75
2023-02-06T14:59:18.011Z,104143.97
2023-02-06T15:01:48.083Z,104141.34
2023-02-06T15:04:26.491Z,104140.47
2023-02-06T15:07:03.159Z,104144.81
2023-02-06T15:09:32.856Z,104149.16
2023-02-06T15:12:03.025Z,104146.53
2023-02-06T15:14:33.118Z,104143.03
2023-02-06T15:17:01.200Z,104143.84
2023-02-06T15:19:33.238Z,104142.94
2023-02-06T15:22:03.227Z,104142.06
2023-02-06T15:24:44.644Z,104147.25
2023-02-06T15:27:30.869Z,104142.84
2023-02-06T15:29:59.047Z,104147.22
2023-02-06T15:32:25.521Z,104146.38
2023-02-06T15:34:52.267Z,104136.84
2023-02-06T15:37:29.468Z,104135.13
2023-02-06T15:40:04.575Z,104139.47
2023-02-06T15:42:31.460Z,104140.34
2023-02-06T15:44:58.357Z,104131.66
2023-02-06T15:47:25.140Z,104142.06
2023-02-06T15:49:53.164Z,104136.88
2023-02-06T15:52:47.012Z,104132.50
2023-02-06T15:55:33.420Z,104139.41
2023-02-06T15:58:03.719Z,104137.66
2023-02-06T16:00:36.986Z,104131.53
2023-02-06T16:03:16.429Z,104142.78
2023-02-06T16:05:43.202Z,104134.03
2023-02-06T16:08:33.021Z,104133.16
2023-02-06T16:11:27.757Z,104136.63
2023-02-06T16:13:54.740Z,104131.41
2023-02-06T16:16:24.447Z,104146.09
2023-02-06T16:18:52.970Z,104144.34
2023-02-06T16:21:19.541Z,104146.06
2023-02-06T16:23:54.746Z,104142.56
2023-02-06T16:26:26.377Z,104136.47
2023-02-06T16:28:56.407Z,104140.75
2023-02-06T16:31:25.878Z,104146.75
2023-02-06T16:33:54.586Z,104141.50
2023-02-06T16:36:23.649Z,104147.50
2023-02-06T16:39:02.867Z,104142.28
2023-02-06T16:41:36.122Z,104144.00
2023-02-06T16:44:04.487Z,104157.03
2023-02-06T16:46:32.693Z,104153.59
2023-02-06T16:48:59.828Z,104155.31
2023-02-06T16:51:29.555Z,104157.13
2023-02-06T16:53:57.227Z,104159.72
2023-02-06T16:56:24.086Z,104161.41
2023-02-06T16:58:50.803Z,104165.72
2023-02-06T17:01:25.588Z,104167.41
2023-02-06T17:03:53.076Z,104165.66
2023-02-06T17:06:26.186Z,104168.22
2023-02-06T17:08:55.720Z,104170.78
2023-02-06T17:11:22.137Z,104173.38
2023-02-06T17:13:48.701Z,104176.78
2023-02-06T17:16:19.285Z,104185.41
2023-02-06T17:18:47.141Z,104181.91
2023-02-06T17:21:15.598Z,104175.78
2023-02-06T17:23:42.246Z,104174.84
2023-02-06T17:26:14.462Z,104166.94
2023-02-06T17:28:41.309Z,104160.84
2023-02-06T17:31:08.314Z,104167.69
2023-02-06T17:33:35.892Z,104164.16
2023-02-06T17:36:03.412Z,104164.06
2023-02-06T17:38:30.192Z,104163.06
2023-02-06T17:40:56.808Z,104161.25
2023-02-06T17:43:23.383Z,104160.31
2023-02-06T17:45:49.921Z,104164.53
2023-02-06T17:48:16.400Z,104160.06
2023-02-06T17:50:43.301Z,104162.56
2023-02-06T17:53:13.864Z,104167.72
2023-02-06T17:55:40.804Z,104165.88
2023-02-06T17:58:07.856Z,104160.59
2023-02-06T18:00:34.881Z,104151.00
2023-02-06T18:03:01.761Z,104162.13
2023-02-06T18:05:28.609Z,104155.97
2023-02-06T18:07:55.326Z,104157.59
2023-02-06T18:10:24.089Z,104152.38
2023-02-06T18:12:50.887Z,104148.81
2023-02-06T18:15:17.778Z,104159.97
2023-02-06T18:17:44.342Z,104153.00
2023-02-06T18:20:12.466Z,104148.56
2023-02-06T18:22:41.899Z,104149.38
2023-02-06T18:25:12.581Z,104153.63
2023-02-06T18:27:40.522Z,104150.97
2023-02-06T18:30:08.001Z,104149.16
2023-02-06T18:32:37.659Z,104146.47
2023-02-06T18:35:05.743Z,104141.25
2023-02-06T18:37:32.234Z,104148.03
2023-02-06T18:40:00.423Z,104135.84
2023-02-06T18:42:45.527Z,104130.59
2023-02-06T18:45:12.326Z,104134.84
2023-02-06T18:47:40.036Z,104131.34
2023-02-06T18:50:06.724Z,104131.31
2023-02-06T18:52:33.405Z,104132.94
2023-02-06T18:55:00.054Z,104133.69
2023-02-06T18:57:26.591Z,104130.16
2023-02-06T18:59:53.087Z,104127.50
2023-02-06T19:02:19.817Z,104128.28
2023-02-06T19:04:46.587Z,104127.34
2023-02-06T19:07:13.748Z,104120.34
2023-02-06T19:09:40.393Z,104117.56
2023-02-06T19:12:07.334Z,104110.56
2023-02-06T19:14:34.244Z,104120.00
2023-02-06T19:17:00.849Z,104113.84
2023-02-06T19:19:27.636Z,104109.50
2023-02-06T19:21:56.472Z,104103.38
2023-02-06T19:24:23.673Z,104105.06
2023-02-06T19:26:51.084Z,104111.09
2023-02-06T19:29:34.450Z,104112.63
2023-02-06T19:32:02.506Z,104108.25
2023-02-06T19:34:29.395Z,104105.66
2023-02-06T19:36:56.105Z,104115.91
2023-02-06T19:39:23.560Z,104112.25
2023-02-06T19:41:50.547Z,104116.50
2023-02-06T19:44:17.302Z,104114.75
2023-02-06T19:46:43.805Z,104112.03
2023-02-06T19:49:11.531Z,104120.66
2023-02-06T19:51:41.307Z,104127.38
2023-02-06T19:54:08.630Z,104136.78
2023-02-06T19:56:39.361Z,104130.66
2023-02-06T19:59:19.905Z,104124.56
2023-02-06T20:01:50.983Z,104125.38
2023-02-06T20:04:19.133Z,104123.56
2023-02-06T20:06:46.184Z,104120.88
2023-02-06T20:09:14.573Z,104125.09
2023-02-06T20:11:42.341Z,104125.03
2023-02-06T20:14:10.197Z,104125.81
2023-02-06T20:16:39.878Z,104123.16
2023-02-06T20:19:16.368Z,104116.97
2023-02-06T20:21:54.493Z,104115.09
2023-02-06T20:24:27.059Z,104120.94
2023-02-06T20:26:57.216Z,104122.47
2023-02-06T20:29:26.915Z,104122.41
2023-02-06T20:31:54.469Z,104115.41
2023-02-06T20:34:21.990Z,104113.63
2023-02-06T20:36:49.991Z,104120.34
2023-02-06T20:39:17.804Z,104116.91
2023-02-06T20:41:45.594Z,104110.84
2023-02-06T20:44:13.852Z,104107.25
2023-02-06T20:46:41.804Z,104108.91
2023-02-06T20:49:16.730Z,104114.00
2023-02-06T20:51:43.654Z,104104.56
2023-02-06T20:54:11.633Z,104110.50
2023-02-06T20:56:39.900Z,104100.97
2023-02-06T20:59:07.672Z,104109.47
2023-02-06T21:01:34.852Z,104109.41
2023-02-06T21:04:04.870Z,104114.38
2023-02-06T21:06:33.308Z,104108.94
2023-02-06T21:09:01.562Z,104102.72
2023-02-06T21:11:31.545Z,104106.84
2023-02-06T21:14:00.050Z,104106.81
2023-02-06T21:16:28.209Z,104111.00
2023-02-06T21:18:57.283Z,104108.28
2023-02-06T21:21:27.702Z,104119.47
2023-02-06T21:23:58.302Z,104110.84
2023-02-06T21:26:26.773Z,104114.28
2023-02-06T21:28:54.502Z,104112.59
2023-02-06T21:31:24.446Z,104109.94
2023-02-06T21:33:52.331Z,104107.25
2023-02-06T21:36:21.240Z,104108.97
2023-02-06T21:38:48.236Z,104100.16
2023-02-06T21:41:17.744Z,104098.34
2023-02-06T21:43:44.960Z,104099.94
2023-02-06T21:46:13.100Z,104094.63
2023-02-06T21:48:40.829Z,104105.78
2023-02-06T21:51:13.388Z,104104.84
2023-02-06T21:53:41.153Z,104103.75
2023-02-06T21:56:11.375Z,104099.38
2023-02-06T21:58:37.825Z,104106.94
2023-02-06T22:01:08.837Z,104106.06
2023-02-06T22:03:35.652Z,104093.16
2023-02-06T22:06:08.530Z,104099.06
2023-02-06T22:08:40.425Z,104103.19
2023-02-06T22:11:18.329Z,104098.69
2023-02-06T22:13:46.208Z,104094.16
2023-02-06T22:16:14.814Z,104101.03
2023-02-06T22:18:42.155Z,104107.03
2023-02-06T22:21:11.866Z,104104.47
2023-02-06T22:23:40.068Z,104108.84
2023-02-06T22:26:08.411Z,104117.47
2023-02-06T22:28:35.080Z,104116.41
2023-02-06T22:31:10.638Z,104113.72
2023-02-06T22:33:37.729Z,104114.59
2023-02-06T22:36:10.984Z,104117.00
2023-02-06T22:38:38.520Z,104112.56
2023-02-06T22:41:08.886Z,104109.28
2023-02-06T22:43:37.397Z,104117.91
2023-02-06T22:46:05.863Z,104107.72
2023-02-06T22:48:32.698Z,104116.31
2023-02-06T22:51:07.117Z,104108.47
2023-02-06T22:53:34.082Z,104126.34
2023-02-06T22:56:25.354Z,104122.69
2023-02-06T22:58:53.034Z,104117.47
2023-02-06T23:01:21.974Z,104118.41
2023-02-06T23:03:52.057Z,104108.03
2023-02-06T23:06:20.161Z,104114.97
2023-02-06T23:08:47.000Z,104107.84
2023-02-06T23:11:14.127Z,104106.09
2023-02-06T23:13:41.386Z,104100.84
2023-02-06T23:16:09.087Z,104094.78
2023-02-06T23:18:36.274Z,104098.06
2023-02-06T23:21:06.240Z,104100.63
2023-02-06T23:23:32.947Z,104102.19
2023-02-06T23:25:59.530Z,104111.47
2023-02-06T23:28:26.645Z,104120.06
2023-02-06T23:30:54.593Z,104114.00
2023-02-06T23:33:22.167Z,104112.91
2023-02-06T23:35:48.894Z,104121.38
2023-02-06T23:38:15.561Z,104116.91
2023-02-06T23:40:42.133Z,104121.97
2023-02-06T23:43:09.734Z,104118.47
2023-02-06T23:45:36.814Z,104121.09
2023-02-06T23:48:03.870Z,104124.56
2023-02-06T23:50:30.319Z,104118.69
2023-02-06T23:52:56.838Z,104116.00
2023-02-06T23:55:27.967Z,104124.50
2023-02-06T23:57:54.441Z,104125.25
